Weather at Krasocin Field

Public forecast

Using degrees Celsius for public forecast. Weather courtesy of forecast.io.

Closest aviation weather report (METAR) to Krasocin Field

Closest report is Katowice Wojciech Korfanty International Airport, 47.2 nm (87.5 km) WSW.

2024/05/21 06:00 (retrieved 21 minutes ago)

EPKT 210600Z 11006KT CAVOK 18/13 Q1013

Closest aviation forecast (TAF) to Krasocin Field

Closest forecast is Katowice Wojciech Korfanty International Airport, 47.2 nm (87.5 km) WSW.

2024/05/21 06:33 (retrieved 0 seconds ago)

TAF EPKT 210530Z 2106/2206 09010KT CAVOK PROB40 TEMPO 2111/2116 SCT040CB